createdAt,value
2023-03-31T00:01:20.617Z,76.66
2023-03-31T00:04:05.617Z,76.69
2023-03-31T00:06:45.485Z,76.76
2023-03-31T00:09:22.390Z,76.61
2023-03-31T00:11:59.514Z,76.62
2023-03-31T00:14:35.963Z,76.59
2023-03-31T00:17:12.875Z,76.46
2023-03-31T00:19:50.075Z,76.43
2023-03-31T00:22:27.714Z,76.34
2023-03-31T00:25:04.069Z,76.20
2023-03-31T00:27:44.230Z,76.07
2023-03-31T00:30:21.522Z,76.02
2023-03-31T00:32:58.058Z,75.94
2023-03-31T00:35:39.377Z,75.88
2023-03-31T00:38:15.934Z,75.81
2023-03-31T00:40:53.897Z,75.75
2023-03-31T00:43:38.533Z,75.70
2023-03-31T00:46:27.649Z,75.76
2023-03-31T00:49:04.935Z,75.69
2023-03-31T00:51:41.601Z,75.73
2023-03-31T00:54:19.673Z,75.79
2023-03-31T00:57:03.604Z,75.81
2023-03-31T00:59:48.123Z,75.91
2023-03-31T01:02:26.005Z,76.02
2023-03-31T01:05:04.864Z,76.12
2023-03-31T01:07:49.482Z,76.19
2023-03-31T01:10:26.974Z,76.30
2023-03-31T01:13:05.186Z,76.45
2023-03-31T01:15:45.126Z,76.49
2023-03-31T01:18:23.478Z,76.53
2023-03-31T01:22:02.863Z,76.57
2023-03-31T01:25:21.878Z,76.46
2023-03-31T01:28:16.305Z,76.42
2023-03-31T01:32:08.189Z,76.57
2023-03-31T01:35:36.748Z,76.66
2023-03-31T01:39:17.831Z,76.64
2023-03-31T01:42:07.804Z,76.50
2023-03-31T01:45:00.938Z,76.56
2023-03-31T01:47:46.642Z,76.52
2023-03-31T01:50:33.630Z,76.41
2023-03-31T01:53:17.652Z,76.43
2023-03-31T01:56:08.770Z,76.42
2023-03-31T01:58:54.906Z,76.39
2023-03-31T02:01:38.439Z,76.25
2023-03-31T02:04:23.924Z,76.28
2023-03-31T02:07:12.316Z,76.28
2023-03-31T02:09:53.068Z,76.25
2023-03-31T02:12:34.421Z,76.25
2023-03-31T02:15:22.295Z,76.16
2023-03-31T02:18:06.339Z,76.11
2023-03-31T02:20:46.378Z,76.07
2023-03-31T02:23:29.617Z,76.01
2023-03-31T02:26:15.097Z,75.96
2023-03-31T02:28:51.624Z,75.93
2023-03-31T02:31:45.497Z,75.88
2023-03-31T02:34:21.944Z,75.80
2023-03-31T02:36:58.560Z,75.78
2023-03-31T02:39:40.833Z,75.74
2023-03-31T02:42:17.707Z,75.73
2023-03-31T02:44:54.640Z,75.68
2023-03-31T02:47:31.227Z,75.68
2023-03-31T02:50:10.930Z,75.61
2023-03-31T02:53:08.074Z,75.59
2023-03-31T02:56:19.164Z,75.55
2023-03-31T02:59:42.521Z,75.51
2023-03-31T03:02:33.456Z,75.51
2023-03-31T03:05:34.811Z,75.52
2023-03-31T03:08:47.197Z,75.40
2023-03-31T03:11:32.528Z,75.34
2023-03-31T03:14:24.317Z,75.33
2023-03-31T03:17:07.387Z,75.39
2023-03-31T03:19:52.214Z,75.40
2023-03-31T03:22:28.955Z,75.51
2023-03-31T03:25:05.869Z,75.56
2023-03-31T03:27:42.926Z,75.56
2023-03-31T03:30:20.503Z,75.52
2023-03-31T03:32:59.053Z,75.62
2023-03-31T03:35:35.714Z,75.59
2023-03-31T03:38:12.102Z,75.66
2023-03-31T03:40:50.043Z,75.80
2023-03-31T03:43:26.630Z,75.83
2023-03-31T03:46:03.016Z,75.97
2023-03-31T03:48:39.393Z,75.93
2023-03-31T03:51:15.809Z,75.96
2023-03-31T03:53:52.152Z,75.98
2023-03-31T03:56:28.464Z,75.91
2023-03-31T03:59:04.645Z,75.84
2023-03-31T04:01:40.977Z,75.93
2023-03-31T04:04:17.542Z,75.91
2023-03-31T04:06:54.214Z,75.85
2023-03-31T04:09:31.007Z,75.88
2023-03-31T04:12:07.799Z,75.88
2023-03-31T04:14:44.261Z,75.82
2023-03-31T04:17:33.078Z,75.81
2023-03-31T04:20:13.533Z,75.81
2023-03-31T04:22:50.913Z,75.83
2023-03-31T04:25:30.883Z,75.79
2023-03-31T04:28:10.794Z,75.80
2023-03-31T04:30:47.363Z,75.78
2023-03-31T04:33:23.868Z,75.71
2023-03-31T04:36:06.935Z,75.68
2023-03-31T04:38:46.979Z,75.73
2023-03-31T04:41:24.340Z,75.70
2023-03-31T04:44:00.971Z,75.62
2023-03-31T04:46:38.013Z,75.62
2023-03-31T04:49:15.045Z,75.61
2023-03-31T04:51:51.875Z,75.65
2023-03-31T04:54:28.517Z,75.56
2023-03-31T04:57:05.000Z,75.50
2023-03-31T04:59:41.673Z,75.43
2023-03-31T05:02:25.186Z,75.41
2023-03-31T05:05:01.968Z,75.35
2023-03-31T05:07:38.227Z,75.29
2023-03-31T05:10:15.575Z,75.16
2023-03-31T05:12:51.887Z,75.02
2023-03-31T05:15:28.190Z,74.94
2023-03-31T05:18:05.798Z,74.98
2023-03-31T05:20:42.412Z,74.93
2023-03-31T05:23:18.881Z,74.92
2023-03-31T05:25:56.477Z,74.78
2023-03-31T05:28:33.245Z,74.70
2023-03-31T05:31:13.102Z,74.68
2023-03-31T05:33:49.750Z,74.58
2023-03-31T05:36:27.419Z,74.57
2023-03-31T05:39:03.936Z,74.52
2023-03-31T05:41:41.121Z,74.48
2023-03-31T05:44:17.820Z,74.43
2023-03-31T05:46:54.220Z,74.34
2023-03-31T05:49:31.159Z,74.30
2023-03-31T05:52:11.785Z,74.31
2023-03-31T05:54:50.619Z,74.27
2023-03-31T05:57:27.622Z,74.17
2023-03-31T06:00:06.245Z,74.10
2023-03-31T06:02:43.069Z,73.96
2023-03-31T06:05:19.779Z,73.71
2023-03-31T06:07:56.356Z,73.56
2023-03-31T06:10:32.810Z,73.45
2023-03-31T06:13:09.090Z,73.24
2023-03-31T06:15:53.767Z,72.56
2023-03-31T06:18:33.799Z,72.13
2023-03-31T06:21:11.758Z,71.90
2023-03-31T06:23:48.957Z,70.90
2023-03-31T06:26:26.064Z,69.45
2023-03-31T06:29:02.436Z,67.62
2023-03-31T06:31:38.808Z,65.54
2023-03-31T06:34:15.554Z,64.24
2023-03-31T06:36:52.041Z,62.62
2023-03-31T06:39:28.903Z,60.73
2023-03-31T06:42:05.280Z,58.32
2023-03-31T06:44:47.580Z,57.62
2023-03-31T06:47:24.054Z,56.32
2023-03-31T06:50:00.452Z,55.47
2023-03-31T06:52:37.198Z,54.70
2023-03-31T06:55:16.111Z,53.67
2023-03-31T06:57:52.576Z,53.07
2023-03-31T07:00:29.851Z,52.56
2023-03-31T07:03:07.020Z,51.25
2023-03-31T07:05:43.921Z,49.36
2023-03-31T07:08:20.385Z,48.81
2023-03-31T07:11:01.151Z,48.36
2023-03-31T07:13:37.461Z,47.02
2023-03-31T07:16:15.049Z,46.88
2023-03-31T07:18:54.198Z,46.87
2023-03-31T07:21:31.015Z,47.35
2023-03-31T07:24:08.024Z,46.06
2023-03-31T07:26:45.045Z,46.15
2023-03-31T07:29:21.547Z,45.75
2023-03-31T07:31:57.969Z,46.11
2023-03-31T07:34:36.271Z,45.58
2023-03-31T07:37:13.913Z,45.73
2023-03-31T07:39:50.294Z,45.78
2023-03-31T07:42:26.966Z,44.61
2023-03-31T07:45:06.288Z,44.11
2023-03-31T07:47:43.322Z,44.29
2023-03-31T07:50:21.240Z,44.08
2023-03-31T07:52:58.559Z,44.55
2023-03-31T07:55:34.984Z,44.55
2023-03-31T07:58:12.037Z,43.41
2023-03-31T08:00:48.589Z,43.54
2023-03-31T08:03:24.947Z,43.61
2023-03-31T08:06:01.829Z,43.31
2023-03-31T08:08:43.334Z,43.64
2023-03-31T08:11:18.177Z,44.02
2023-03-31T08:13:55.674Z,44.66
2023-03-31T08:16:33.131Z,43.89
2023-03-31T08:19:10.001Z,43.09
2023-03-31T08:21:51.473Z,43.45
2023-03-31T08:24:28.324Z,44.08
2023-03-31T08:27:04.970Z,43.56
2023-03-31T08:29:42.181Z,43.81
2023-03-31T08:32:23.259Z,44.22
2023-03-31T08:35:00.005Z,43.63
2023-03-31T08:37:37.592Z,43.48
2023-03-31T08:40:23.880Z,43.95
2023-03-31T08:43:07.575Z,43.71
2023-03-31T08:45:50.029Z,43.95
2023-03-31T08:48:36.821Z,44.29
2023-03-31T08:51:22.206Z,43.86
2023-03-31T08:54:05.808Z,43.98
2023-03-31T08:56:48.182Z,43.16
2023-03-31T08:59:34.676Z,43.44
2023-03-31T09:02:27.170Z,43.36
2023-03-31T09:05:29.531Z,44.50
2023-03-31T09:08:21.227Z,45.00
2023-03-31T09:11:00.975Z,43.20
2023-03-31T09:14:17.250Z,42.49
2023-03-31T09:17:14.971Z,41.96
2023-03-31T09:20:00.072Z,42.31
2023-03-31T09:22:45.154Z,41.80
2023-03-31T09:25:29.852Z,41.75
2023-03-31T09:28:15.450Z,42.95
2023-03-31T09:30:53.087Z,43.41
2023-03-31T09:33:33.238Z,44.07
2023-03-31T09:36:20.169Z,44.73
2023-03-31T09:38:56.586Z,45.52
2023-03-31T09:41:34.305Z,46.10
2023-03-31T09:44:27.230Z,46.93
2023-03-31T09:47:10.911Z,48.56
2023-03-31T09:49:53.852Z,48.06
2023-03-31T09:52:38.526Z,47.31
2023-03-31T09:55:39.022Z,46.84
2023-03-31T09:58:21.047Z,47.31
2023-03-31T10:01:09.815Z,47.12
2023-03-31T10:03:56.498Z,47.39
2023-03-31T10:06:33.044Z,47.49
2023-03-31T10:09:11.553Z,47.52
2023-03-31T10:11:59.718Z,48.05
2023-03-31T10:14:48.481Z,47.97
2023-03-31T10:17:29.523Z,47.67
2023-03-31T10:20:29.011Z,48.67
2023-03-31T10:23:16.987Z,48.23
2023-03-31T10:25:54.713Z,48.22
2023-03-31T10:28:35.263Z,47.79
2023-03-31T10:31:12.123Z,46.20
2023-03-31T10:33:52.959Z,45.76
2023-03-31T10:36:32.750Z,46.04
2023-03-31T10:39:17.470Z,47.04
2023-03-31T10:41:57.853Z,47.25
2023-03-31T10:44:42.231Z,46.45
2023-03-31T10:47:26.181Z,46.07
2023-03-31T10:50:13.918Z,46.06
2023-03-31T10:52:53.723Z,45.37
2023-03-31T10:55:41.188Z,45.50
2023-03-31T10:58:52.073Z,45.20
2023-03-31T11:02:07.557Z,46.05
2023-03-31T11:05:08.725Z,45.87
2023-03-31T11:08:03.520Z,44.96
2023-03-31T11:11:06.842Z,46.05
2023-03-31T11:13:58.009Z,46.33
2023-03-31T11:16:50.496Z,46.11
2023-03-31T11:19:46.993Z,46.49
2023-03-31T11:22:44.024Z,46.51
2023-03-31T11:25:38.207Z,45.46
2023-03-31T11:28:46.079Z,45.86
2023-03-31T11:31:40.504Z,45.88
2023-03-31T11:34:56.904Z,45.98
2023-03-31T11:38:05.722Z,46.37
2023-03-31T11:41:05.319Z,46.62
2023-03-31T11:43:48.202Z,47.29
2023-03-31T11:46:33.447Z,47.53
2023-03-31T11:49:21.881Z,47.83
2023-03-31T11:52:03.649Z,48.25
2023-03-31T11:54:47.936Z,48.58
2023-03-31T11:57:33.106Z,48.58
2023-03-31T12:00:22.689Z,47.90
2023-03-31T12:03:09.022Z,48.03
2023-03-31T12:05:50.810Z,48.58
2023-03-31T12:08:36.972Z,48.21
2023-03-31T12:11:23.466Z,48.35
2023-03-31T12:14:16.316Z,49.11
2023-03-31T12:16:57.167Z,49.08
2023-03-31T12:19:45.534Z,49.80
2023-03-31T12:22:30.274Z,49.94
2023-03-31T12:25:10.116Z,49.63
2023-03-31T12:27:51.717Z,49.73
2023-03-31T12:30:37.569Z,49.69
2023-03-31T12:33:26.143Z,49.60
2023-03-31T12:36:38.113Z,49.28
2023-03-31T12:39:36.368Z,49.40
2023-03-31T12:42:52.885Z,48.92
2023-03-31T12:45:39.488Z,49.40
2023-03-31T12:48:55.492Z,49.46
2023-03-31T12:52:01.589Z,48.35
2023-03-31T12:55:13.033Z,47.94
2023-03-31T12:57:49.404Z,47.47
2023-03-31T13:00:31.867Z,47.13
2023-03-31T13:03:52.443Z,47.13
2023-03-31T13:07:17.308Z,47.57
2023-03-31T13:10:00.900Z,47.65
2023-03-31T13:12:37.560Z,48.07
2023-03-31T13:15:20.272Z,47.89
2023-03-31T13:18:04.847Z,48.20
2023-03-31T13:20:43.620Z,47.60
2023-03-31T13:23:27.394Z,47.49
2023-03-31T13:26:04.264Z,46.59
2023-03-31T13:29:09.831Z,46.16
2023-03-31T13:32:26.968Z,46.37
2023-03-31T13:35:21.684Z,46.59
2023-03-31T13:38:23.822Z,47.10
2023-03-31T13:41:17.594Z,47.42
2023-03-31T13:44:51.871Z,45.50
2023-03-31T13:48:01.318Z,44.97
2023-03-31T13:50:59.962Z,45.51
2023-03-31T13:54:06.522Z,45.21
2023-03-31T13:57:14.138Z,44.02
2023-03-31T14:00:38.820Z,44.74
2023-03-31T14:04:02.959Z,44.71
2023-03-31T14:06:58.218Z,45.37
2023-03-31T14:09:51.311Z,46.05
2023-03-31T14:13:08.668Z,45.93
2023-03-31T14:16:02.996Z,45.48
2023-03-31T14:18:50.761Z,46.19
2023-03-31T14:21:38.709Z,46.70
2023-03-31T14:24:29.912Z,47.27
2023-03-31T14:27:25.844Z,46.78
2023-03-31T14:30:14.314Z,46.03
2023-03-31T14:33:05.891Z,46.84
2023-03-31T14:35:51.442Z,49.28
2023-03-31T14:38:32.255Z,51.58
2023-03-31T14:41:16.045Z,52.27
2023-03-31T14:43:55.873Z,52.86
2023-03-31T14:46:38.936Z,52.49
2023-03-31T14:49:27.458Z,52.83
2023-03-31T14:52:19.716Z,52.53
2023-03-31T14:54:57.832Z,52.34
2023-03-31T14:57:39.324Z,49.41
2023-03-31T15:00:26.403Z,47.88
2023-03-31T15:03:08.399Z,47.91
2023-03-31T15:05:48.967Z,48.08
2023-03-31T15:08:29.797Z,47.16
2023-03-31T15:11:13.727Z,47.47
2023-03-31T15:14:04.406Z,47.10
2023-03-31T15:16:47.014Z,47.26
2023-03-31T15:19:29.259Z,46.99
2023-03-31T15:22:14.326Z,47.66
2023-03-31T15:24:50.989Z,48.48
2023-03-31T15:27:38.192Z,48.44
2023-03-31T15:30:22.934Z,48.58
2023-03-31T15:33:11.637Z,49.16
2023-03-31T15:35:54.755Z,49.05
2023-03-31T15:38:33.042Z,49.11
2023-03-31T15:41:18.029Z,49.46
2023-03-31T15:44:09.484Z,49.06
2023-03-31T15:47:07.268Z,49.18
2023-03-31T15:49:53.528Z,49.52
2023-03-31T15:52:41.262Z,49.82
2023-03-31T15:55:40.778Z,50.23
2023-03-31T15:58:20.833Z,50.25
2023-03-31T16:01:07.114Z,50.28
2023-03-31T16:03:45.892Z,50.57
2023-03-31T16:06:39.393Z,50.57
2023-03-31T16:09:23.317Z,50.84
2023-03-31T16:12:03.762Z,51.42
2023-03-31T16:14:51.464Z,52.05
2023-03-31T16:17:36.600Z,52.57
2023-03-31T16:20:24.778Z,53.37
2023-03-31T16:23:03.844Z,53.82
2023-03-31T16:25:44.443Z,53.66
2023-03-31T16:28:26.254Z,53.98
2023-03-31T16:31:03.929Z,54.10
2023-03-31T16:34:00.002Z,54.39
2023-03-31T16:36:36.710Z,54.20
2023-03-31T16:39:13.254Z,54.34
2023-03-31T16:41:49.654Z,54.53
2023-03-31T16:44:26.758Z,54.35
2023-03-31T16:47:03.452Z,54.35
2023-03-31T16:49:39.839Z,54.41
2023-03-31T16:52:17.330Z,54.09
2023-03-31T16:54:53.561Z,53.82
2023-03-31T16:57:30.683Z,53.78
2023-03-31T17:00:08.925Z,53.86
2023-03-31T17:02:45.498Z,53.75
2023-03-31T17:05:22.485Z,53.82
2023-03-31T17:07:59.312Z,53.94
2023-03-31T17:10:35.679Z,54.29
2023-03-31T17:13:12.972Z,54.50
2023-03-31T17:15:49.661Z,54.60
2023-03-31T17:18:27.264Z,54.71
2023-03-31T17:21:13.689Z,54.88
2023-03-31T17:23:51.031Z,55.10
2023-03-31T17:26:27.962Z,55.27
2023-03-31T17:29:04.876Z,55.40
2023-03-31T17:31:41.261Z,55.54
2023-03-31T17:34:18.452Z,55.70
2023-03-31T17:36:55.862Z,55.78
2023-03-31T17:39:32.995Z,55.94
2023-03-31T17:42:09.777Z,55.96
2023-03-31T17:44:46.494Z,56.02
2023-03-31T17:47:24.600Z,56.07
2023-03-31T17:50:01.334Z,56.22
2023-03-31T17:52:39.096Z,56.31
2023-03-31T17:55:17.304Z,56.37
2023-03-31T17:57:54.333Z,56.63
2023-03-31T18:00:31.340Z,57.25
2023-03-31T18:03:10.331Z,57.48
2023-03-31T18:05:47.214Z,57.79
2023-03-31T18:08:24.421Z,57.92
2023-03-31T18:11:01.194Z,58.31
2023-03-31T18:13:39.101Z,58.41
2023-03-31T18:16:17.248Z,58.64
2023-03-31T18:18:53.939Z,58.89
2023-03-31T18:21:31.176Z,59.18
2023-03-31T18:24:08.392Z,59.45
2023-03-31T18:26:45.212Z,59.88
2023-03-31T18:29:21.637Z,60.16
2023-03-31T18:31:58.516Z,60.42
2023-03-31T18:34:36.941Z,60.68
2023-03-31T18:37:14.140Z,62.59
2023-03-31T18:39:52.074Z,63.79
2023-03-31T18:42:28.975Z,63.92
2023-03-31T18:45:06.192Z,62.79
2023-03-31T18:47:42.913Z,63.02
2023-03-31T18:50:20.121Z,63.37
2023-03-31T18:52:56.824Z,63.90
2023-03-31T18:55:33.510Z,64.20
2023-03-31T18:58:10.360Z,64.55
2023-03-31T19:00:48.288Z,64.81
2023-03-31T19:03:26.805Z,65.03
2023-03-31T19:06:11.317Z,64.92
2023-03-31T19:08:48.472Z,65.03
2023-03-31T19:11:25.518Z,65.08
2023-03-31T19:14:02.837Z,65.10
2023-03-31T19:16:42.555Z,65.17
2023-03-31T19:19:20.046Z,65.03
2023-03-31T19:21:57.553Z,65.12
2023-03-31T19:24:34.595Z,65.21
2023-03-31T19:27:13.410Z,65.13
2023-03-31T19:29:50.440Z,65.06
2023-03-31T19:32:27.438Z,65.06
2023-03-31T19:35:04.480Z,65.25
2023-03-31T19:37:41.871Z,65.24
2023-03-31T19:40:19.554Z,65.40
2023-03-31T19:42:56.166Z,65.51
2023-03-31T19:45:33.085Z,65.71
2023-03-31T19:48:09.734Z,65.75
2023-03-31T19:50:53.086Z,65.79
2023-03-31T19:53:30.523Z,65.87
2023-03-31T19:56:11.279Z,66.13
2023-03-31T19:58:50.293Z,66.67
2023-03-31T20:01:29.648Z,67.12
2023-03-31T20:04:06.672Z,67.17
2023-03-31T20:06:43.490Z,66.96
2023-03-31T20:09:19.803Z,66.80
2023-03-31T20:11:56.809Z,66.85
2023-03-31T20:14:33.437Z,66.84
2023-03-31T20:17:11.734Z,66.70
2023-03-31T20:19:48.246Z,66.65
2023-03-31T20:22:24.614Z,66.83
2023-03-31T20:25:03.660Z,66.97
2023-03-31T20:27:42.130Z,66.79
2023-03-31T20:30:20.152Z,66.69
2023-03-31T20:32:56.614Z,67.00
2023-03-31T20:35:33.437Z,66.97
2023-03-31T20:38:09.868Z,67.06
2023-03-31T20:40:49.300Z,67.25
2023-03-31T20:43:25.741Z,67.61
2023-03-31T20:46:04.627Z,67.77
2023-03-31T20:48:44.789Z,67.52
2023-03-31T20:51:25.005Z,67.36
2023-03-31T20:54:04.606Z,67.67
2023-03-31T20:56:42.803Z,68.18
2023-03-31T20:59:20.531Z,68.43
2023-03-31T21:01:57.148Z,68.24
2023-03-31T21:04:33.691Z,68.29
2023-03-31T21:07:09.929Z,68.63
2023-03-31T21:09:46.788Z,68.90
2023-03-31T21:12:23.543Z,69.19
2023-03-31T21:15:00.390Z,69.07
2023-03-31T21:17:36.667Z,69.22
2023-03-31T21:20:15.786Z,69.79
2023-03-31T21:22:52.092Z,69.96
2023-03-31T21:25:29.558Z,70.10
2023-03-31T21:28:06.640Z,70.34
2023-03-31T21:30:49.814Z,70.92
2023-03-31T21:33:27.838Z,71.16
2023-03-31T21:36:04.791Z,71.39
2023-03-31T21:38:41.616Z,71.43
2023-03-31T21:41:22.700Z,71.51
2023-03-31T21:44:02.278Z,71.68
2023-03-31T21:46:39.430Z,71.71
2023-03-31T21:49:17.431Z,71.80
2023-03-31T21:51:55.132Z,71.86
2023-03-31T21:54:31.407Z,72.23
2023-03-31T21:57:08.955Z,72.35
2023-03-31T21:59:45.249Z,72.35
2023-03-31T22:02:23.361Z,72.32
2023-03-31T22:04:59.709Z,72.39
2023-03-31T22:07:37.217Z,72.40
2023-03-31T22:10:15.281Z,72.47
2023-03-31T22:12:51.793Z,72.46
2023-03-31T22:15:28.145Z,71.99
2023-03-31T22:18:04.564Z,71.80
2023-03-31T22:20:41.482Z,71.45
2023-03-31T22:23:20.687Z,71.13
2023-03-31T22:25:57.269Z,70.62
2023-03-31T22:28:33.615Z,70.22
2023-03-31T22:31:10.965Z,69.80
2023-03-31T22:33:47.734Z,69.59
2023-03-31T22:36:24.118Z,69.34
2023-03-31T22:39:00.454Z,68.94
2023-03-31T22:41:36.700Z,68.58
2023-03-31T22:44:13.606Z,68.31
2023-03-31T22:46:51.148Z,68.32
2023-03-31T22:49:27.675Z,68.01
2023-03-31T22:52:04.245Z,67.75
2023-03-31T22:54:41.588Z,67.45
2023-03-31T22:57:18.265Z,67.26
2023-03-31T22:59:54.867Z,67.16
2023-03-31T23:02:31.859Z,67.06
2023-03-31T23:05:10.620Z,67.00
2023-03-31T23:07:46.896Z,66.94
2023-03-31T23:10:23.502Z,66.88
2023-03-31T23:12:59.910Z,66.75
2023-03-31T23:15:37.584Z,66.57
2023-03-31T23:18:14.392Z,66.58
2023-03-31T23:20:51.157Z,66.73
2023-03-31T23:23:27.706Z,66.70
2023-03-31T23:26:07.469Z,66.64
2023-03-31T23:28:45.607Z,66.72
2023-03-31T23:31:24.348Z,66.73
2023-03-31T23:34:01.638Z,66.77
2023-03-31T23:36:38.044Z,66.79
2023-03-31T23:39:14.501Z,66.89
2023-03-31T23:41:51.213Z,66.97
2023-03-31T23:44:27.595Z,67.09
2023-03-31T23:47:04.131Z,67.18
2023-03-31T23:49:40.377Z,67.33
2023-03-31T23:52:16.842Z,67.43
2023-03-31T23:54:53.258Z,67.54
2023-03-31T23:57:29.771Z,67.52
